Řízení letového provozu České republiky
Letiste: LKMT Aktualizace: 20.07.2018 15:31:07  UTC
 METAR LKMT 20.07. 15:30 ...
METAR LKMT 201530Z 35006KT 320V030 CAVOK 26/13 Q1013 NOSIG RMK REG QNH 1010=
 TAF LKMT 20.07. 11:00 ...
TAF LKMT 201100Z 2012/2118 02008KT 9999 SCT033      TEMPO 2012/2013 BKN030      BECMG 2016/2018 CAVOK      BECMG 2023/2102 VRB02KT      TEMPO 2102/2106 3000 BR SCT007      BECMG 2107/2109 02008KT=